sensor_id;sensor_type;location;lat;lon;timestamp;P1;durP1;ratioP1;P2;durP2;ratioP2
15528;SDS011;7866;52.280;9.500;2022-10-16T00:00:40;3.83;;;0.85;;
15528;SDS011;7866;52.280;9.500;2022-10-16T00:05:43;4.97;;;0.88;;
15528;SDS011;7866;52.280;9.500;2022-10-16T00:10:45;1.73;;;0.70;;
15528;SDS011;7866;52.280;9.500;2022-10-16T00:15:48;3.10;;;0.88;;
15528;SDS011;7866;52.280;9.500;2022-10-16T00:20:50;1.05;;;0.70;;
15528;SDS011;7866;52.280;9.500;2022-10-16T00:25:55;5.32;;;1.25;;
15528;SDS011;7866;52.280;9.500;2022-10-16T00:30:58;3.63;;;1.50;;
15528;SDS011;7866;52.280;9.500;2022-10-16T00:36:00;2.45;;;1.50;;
15528;SDS011;7866;52.280;9.500;2022-10-16T00:41:02;1.80;;;1.00;;
15528;SDS011;7866;52.280;9.500;2022-10-16T00:46:09;4.10;;;1.40;;
15528;SDS011;7866;52.280;9.500;2022-10-16T00:51:16;5.67;;;1.67;;
15528;SDS011;7866;52.280;9.500;2022-10-16T00:56:20;2.60;;;1.35;;
15528;SDS011;7866;52.280;9.500;2022-10-16T01:01:23;3.90;;;1.65;;
15528;SDS011;7866;52.280;9.500;2022-10-16T01:06:27;2.53;;;1.33;;
15528;SDS011;7866;52.280;9.500;2022-10-16T01:11:38;2.70;;;1.75;;
15528;SDS011;7866;52.280;9.500;2022-10-16T01:16:48;4.80;;;1.50;;
15528;SDS011;7866;52.280;9.500;2022-10-16T01:21:54;4.55;;;1.95;;
15528;SDS011;7866;52.280;9.500;2022-10-16T01:27:08;3.20;;;1.70;;
15528;SDS011;7866;52.280;9.500;2022-10-16T01:32:15;1.92;;;1.63;;
15528;SDS011;7866;52.280;9.500;2022-10-16T01:37:22;4.18;;;1.50;;
15528;SDS011;7866;52.280;9.500;2022-10-16T01:42:34;1.55;;;1.45;;
15528;SDS011;7866;52.280;9.500;2022-10-16T01:47:37;1.42;;;1.33;;
15528;SDS011;7866;52.280;9.500;2022-10-16T01:52:41;3.55;;;1.60;;
15528;SDS011;7866;52.280;9.500;2022-10-16T01:57:47;1.65;;;1.45;;
15528;SDS011;7866;52.280;9.500;2022-10-16T02:02:53;2.70;;;1.35;;
15528;SDS011;7866;52.280;9.500;2022-10-16T02:07:59;1.23;;;1.13;;
15528;SDS011;7866;52.280;9.500;2022-10-16T02:13:03;3.78;;;1.33;;
15528;SDS011;7866;52.280;9.500;2022-10-16T02:18:09;4.18;;;1.30;;
15528;SDS011;7866;52.280;9.500;2022-10-16T02:23:12;6.72;;;1.13;;
15528;SDS011;7866;52.280;9.500;2022-10-16T02:28:23;3.67;;;1.50;;
15528;SDS011;7866;52.280;9.500;2022-10-16T02:33:30;3.03;;;1.60;;
15528;SDS011;7866;52.280;9.500;2022-10-16T02:38:33;1.40;;;1.30;;
15528;SDS011;7866;52.280;9.500;2022-10-16T02:43:37;1.40;;;1.10;;
15528;SDS011;7866;52.280;9.500;2022-10-16T02:48:39;3.00;;;1.70;;
15528;SDS011;7866;52.280;9.500;2022-10-16T02:53:41;4.57;;;1.80;;
15528;SDS011;7866;52.280;9.500;2022-10-16T02:58:44;2.83;;;1.60;;
15528;SDS011;7866;52.280;9.500;2022-10-16T03:03:45;2.23;;;1.87;;
15528;SDS011;7866;52.280;9.500;2022-10-16T03:08:47;2.33;;;1.40;;
15528;SDS011;7866;52.280;9.500;2022-10-16T03:13:50;2.05;;;1.10;;
15528;SDS011;7866;52.280;9.500;2022-10-16T03:18:52;8.23;;;1.57;;
15528;SDS011;7866;52.280;9.500;2022-10-16T03:23:53;1.77;;;1.20;;
15528;SDS011;7866;52.280;9.500;2022-10-16T03:28:56;6.40;;;1.27;;
15528;SDS011;7866;52.280;9.500;2022-10-16T03:33:58;7.00;;;1.50;;
15528;SDS011;7866;52.280;9.500;2022-10-16T03:39:00;6.77;;;1.40;;
15528;SDS011;7866;52.280;9.500;2022-10-16T03:44:03;4.80;;;1.17;;
15528;SDS011;7866;52.280;9.500;2022-10-16T03:49:04;8.33;;;1.33;;
15528;SDS011;7866;52.280;9.500;2022-10-16T03:54:06;1.47;;;1.10;;
15528;SDS011;7866;52.280;9.500;2022-10-16T03:59:09;3.77;;;1.37;;
15528;SDS011;7866;52.280;9.500;2022-10-16T04:04:11;4.97;;;1.80;;
15528;SDS011;7866;52.280;9.500;2022-10-16T04:09:12;1.57;;;0.80;;
15528;SDS011;7866;52.280;9.500;2022-10-16T04:14:16;5.30;;;1.20;;
15528;SDS011;7866;52.280;9.500;2022-10-16T04:19:18;1.23;;;1.13;;
15528;SDS011;7866;52.280;9.500;2022-10-16T04:24:20;4.43;;;1.00;;
15528;SDS011;7866;52.280;9.500;2022-10-16T04:29:23;3.70;;;1.53;;
15528;SDS011;7866;52.280;9.500;2022-10-16T04:34:25;4.00;;;1.30;;
15528;SDS011;7866;52.280;9.500;2022-10-16T04:39:26;4.30;;;1.17;;
15528;SDS011;7866;52.280;9.500;2022-10-16T04:44:29;4.77;;;1.50;;
15528;SDS011;7866;52.280;9.500;2022-10-16T04:49:31;1.53;;;1.17;;
15528;SDS011;7866;52.280;9.500;2022-10-16T04:54:33;3.90;;;1.70;;
15528;SDS011;7866;52.280;9.500;2022-10-16T04:59:36;3.60;;;1.20;;
15528;SDS011;7866;52.280;9.500;2022-10-16T05:04:37;1.97;;;1.37;;
15528;SDS011;7866;52.280;9.500;2022-10-16T05:09:39;3.70;;;1.40;;
15528;SDS011;7866;52.280;9.500;2022-10-16T05:14:42;5.40;;;1.60;;
15528;SDS011;7866;52.280;9.500;2022-10-16T05:19:43;7.60;;;1.63;;
15528;SDS011;7866;52.280;9.500;2022-10-16T05:24:45;2.97;;;1.10;;
15528;SDS011;7866;52.280;9.500;2022-10-16T05:29:48;4.00;;;1.20;;
15528;SDS011;7866;52.280;9.500;2022-10-16T05:34:50;1.57;;;1.47;;
15528;SDS011;7866;52.280;9.500;2022-10-16T05:39:52;3.50;;;1.10;;
15528;SDS011;7866;52.280;9.500;2022-10-16T05:44:55;6.03;;;1.37;;
15528;SDS011;7866;52.280;9.500;2022-10-16T05:49:56;1.67;;;1.57;;
15528;SDS011;7866;52.280;9.500;2022-10-16T05:54:58;2.83;;;1.43;;
15528;SDS011;7866;52.280;9.500;2022-10-16T06:00:01;7.53;;;1.60;;
15528;SDS011;7866;52.280;9.500;2022-10-16T06:05:04;5.10;;;1.50;;
15528;SDS011;7866;52.280;9.500;2022-10-16T06:10:07;3.00;;;1.10;;
15528;SDS011;7866;52.280;9.500;2022-10-16T06:15:10;2.40;;;1.30;;
15528;SDS011;7866;52.280;9.500;2022-10-16T06:20:12;4.63;;;1.40;;
15528;SDS011;7866;52.280;9.500;2022-10-16T06:25:14;1.17;;;1.00;;
15528;SDS011;7866;52.280;9.500;2022-10-16T06:30:17;1.33;;;0.97;;
15528;SDS011;7866;52.280;9.500;2022-10-16T06:35:18;2.95;;;1.20;;
15528;SDS011;7866;52.280;9.500;2022-10-16T06:40:20;2.53;;;1.10;;
15528;SDS011;7866;52.280;9.500;2022-10-16T06:45:23;4.80;;;1.45;;
15528;SDS011;7866;52.280;9.500;2022-10-16T06:50:25;1.90;;;1.30;;
15528;SDS011;7866;52.280;9.500;2022-10-16T06:55:26;3.55;;;0.82;;
15528;SDS011;7866;52.280;9.500;2022-10-16T07:00:30;1.73;;;0.98;;
15528;SDS011;7866;52.280;9.500;2022-10-16T07:05:31;1.42;;;1.30;;
15528;SDS011;7866;52.280;9.500;2022-10-16T07:10:33;1.00;;;0.93;;
15528;SDS011;7866;52.280;9.500;2022-10-16T07:15:36;4.30;;;1.27;;
15528;SDS011;7866;52.280;9.500;2022-10-16T07:20:38;1.10;;;1.00;;
15528;SDS011;7866;52.280;9.500;2022-10-16T07:25:39;2.63;;;0.95;;
15528;SDS011;7866;52.280;9.500;2022-10-16T07:30:42;1.33;;;1.10;;
15528;SDS011;7866;52.280;9.500;2022-10-16T07:35:48;1.42;;;1.10;;
15528;SDS011;7866;52.280;9.500;2022-10-16T07:40:55;1.75;;;1.10;;
15528;SDS011;7866;52.280;9.500;2022-10-16T07:45:59;0.98;;;0.70;;
15528;SDS011;7866;52.280;9.500;2022-10-16T07:51:01;1.77;;;1.00;;
15528;SDS011;7866;52.280;9.500;2022-10-16T07:56:04;1.42;;;0.90;;
15528;SDS011;7866;52.280;9.500;2022-10-16T08:01:10;1.67;;;0.90;;
15528;SDS011;7866;52.280;9.500;2022-10-16T08:06:13;1.17;;;0.90;;
15528;SDS011;7866;52.280;9.500;2022-10-16T08:11:15;1.42;;;0.88;;
15528;SDS011;7866;52.280;9.500;2022-10-16T08:16:18;1.15;;;0.80;;
15528;SDS011;7866;52.280;9.500;2022-10-16T08:21:21;0.82;;;0.80;;
15528;SDS011;7866;52.280;9.500;2022-10-16T08:26:24;1.02;;;1.00;;
15528;SDS011;7866;52.280;9.500;2022-10-16T08:31:28;1.17;;;0.82;;
15528;SDS011;7866;52.280;9.500;2022-10-16T08:36:29;1.40;;;0.98;;
15528;SDS011;7866;52.280;9.500;2022-10-16T08:41:45;1.55;;;0.63;;
15528;SDS011;7866;52.280;9.500;2022-10-16T08:47:05;3.40;;;1.30;;
15528;SDS011;7866;52.280;9.500;2022-10-16T08:52:14;1.17;;;0.80;;
15528;SDS011;7866;52.280;9.500;2022-10-16T08:57:16;0.68;;;0.68;;
15528;SDS011;7866;52.280;9.500;2022-10-16T09:02:24;4.53;;;0.90;;
15528;SDS011;7866;52.280;9.500;2022-10-16T09:07:32;3.08;;;1.10;;
15528;SDS011;7866;52.280;9.500;2022-10-16T09:12:45;3.47;;;0.85;;
15528;SDS011;7866;52.280;9.500;2022-10-16T09:17:59;1.35;;;0.90;;
15528;SDS011;7866;52.280;9.500;2022-10-16T09:23:16;1.08;;;0.90;;
15528;SDS011;7866;52.280;9.500;2022-10-16T09:28:19;1.60;;;0.90;;
15528;SDS011;7866;52.280;9.500;2022-10-16T09:33:23;1.35;;;1.00;;
15528;SDS011;7866;52.280;9.500;2022-10-16T09:38:29;2.10;;;0.80;;
15528;SDS011;7866;52.280;9.500;2022-10-16T09:43:34;1.63;;;0.60;;
15528;SDS011;7866;52.280;9.500;2022-10-16T09:48:44;3.17;;;0.90;;
15528;SDS011;7866;52.280;9.500;2022-10-16T09:53:53;1.85;;;0.80;;
15528;SDS011;7866;52.280;9.500;2022-10-16T09:58:57;0.77;;;0.57;;
15528;SDS011;7866;52.280;9.500;2022-10-16T10:04:02;1.17;;;0.73;;
15528;SDS011;7866;52.280;9.500;2022-10-16T10:09:05;3.55;;;0.93;;
15528;SDS011;7866;52.280;9.500;2022-10-16T10:14:23;5.10;;;1.20;;
15528;SDS011;7866;52.280;9.500;2022-10-16T10:19:37;1.50;;;0.73;;
15528;SDS011;7866;52.280;9.500;2022-10-16T10:24:39;3.08;;;0.98;;
15528;SDS011;7866;52.280;9.500;2022-10-16T10:29:44;1.60;;;0.60;;
15528;SDS011;7866;52.280;9.500;2022-10-16T10:36:22;1.35;;;0.60;;
15528;SDS011;7866;52.280;9.500;2022-10-16T10:47:08;1.85;;;0.60;;
15528;SDS011;7866;52.280;9.500;2022-10-16T10:52:26;2.17;;;0.70;;
15528;SDS011;7866;52.280;9.500;2022-10-16T10:57:37;1.58;;;0.90;;
15528;SDS011;7866;52.280;9.500;2022-10-16T11:02:48;1.40;;;0.70;;
15528;SDS011;7866;52.280;9.500;2022-10-16T11:08:02;2.88;;;0.80;;
15528;SDS011;7866;52.280;9.500;2022-10-16T11:13:11;2.05;;;1.02;;
15528;SDS011;7866;52.280;9.500;2022-10-16T11:18:22;3.20;;;1.60;;
15528;SDS011;7866;52.280;9.500;2022-10-16T11:23:29;2.70;;;0.90;;
15528;SDS011;7866;52.280;9.500;2022-10-16T11:28:37;1.67;;;0.80;;
15528;SDS011;7866;52.280;9.500;2022-10-16T11:33:44;2.78;;;0.70;;
15528;SDS011;7866;52.280;9.500;2022-10-16T11:38:51;0.60;;;0.47;;
15528;SDS011;7866;52.280;9.500;2022-10-16T11:44:06;2.70;;;0.70;;
15528;SDS011;7866;52.280;9.500;2022-10-16T11:49:15;0.52;;;0.50;;
15528;SDS011;7866;52.280;9.500;2022-10-16T11:54:24;2.88;;;0.55;;
15528;SDS011;7866;52.280;9.500;2022-10-16T11:59:32;1.83;;;0.60;;
15528;SDS011;7866;52.280;9.500;2022-10-16T12:04:42;1.23;;;0.40;;
15528;SDS011;7866;52.280;9.500;2022-10-16T12:09:51;2.75;;;0.55;;
15528;SDS011;7866;52.280;9.500;2022-10-16T12:14:59;1.05;;;0.45;;
15528;SDS011;7866;52.280;9.500;2022-10-16T12:20:18;0.60;;;0.40;;
15528;SDS011;7866;52.280;9.500;2022-10-16T12:25:26;2.10;;;0.70;;
15528;SDS011;7866;52.280;9.500;2022-10-16T12:30:30;1.70;;;0.60;;
15528;SDS011;7866;52.280;9.500;2022-10-16T12:35:34;1.20;;;0.80;;
15528;SDS011;7866;52.280;9.500;2022-10-16T12:40:46;1.58;;;0.40;;
15528;SDS011;7866;52.280;9.500;2022-10-16T12:46:00;1.67;;;0.50;;
15528;SDS011;7866;52.280;9.500;2022-10-16T12:51:10;1.52;;;0.60;;
15528;SDS011;7866;52.280;9.500;2022-10-16T12:56:15;2.22;;;0.55;;
15528;SDS011;7866;52.280;9.500;2022-10-16T13:01:34;1.25;;;0.70;;
15528;SDS011;7866;52.280;9.500;2022-10-16T13:06:44;0.50;;;0.50;;
15528;SDS011;7866;52.280;9.500;2022-10-16T13:11:58;2.47;;;0.73;;
15528;SDS011;7866;52.280;9.500;2022-10-16T13:17:10;1.00;;;0.70;;
15528;SDS011;7866;52.280;9.500;2022-10-16T13:22:21;0.70;;;0.70;;
15528;SDS011;7866;52.280;9.500;2022-10-16T13:27:32;0.70;;;0.63;;
15528;SDS011;7866;52.280;9.500;2022-10-16T13:32:43;2.10;;;0.63;;
15528;SDS011;7866;52.280;9.500;2022-10-16T13:37:47;0.55;;;0.47;;
15528;SDS011;7866;52.280;9.500;2022-10-16T13:42:50;1.33;;;0.50;;
15528;SDS011;7866;52.280;9.500;2022-10-16T13:48:01;2.35;;;0.55;;
15528;SDS011;7866;52.280;9.500;2022-10-16T13:53:04;1.45;;;0.93;;
15528;SDS011;7866;52.280;9.500;2022-10-16T13:58:10;0.60;;;0.57;;
15528;SDS011;7866;52.280;9.500;2022-10-16T14:03:14;2.83;;;0.73;;
15528;SDS011;7866;52.280;9.500;2022-10-16T14:08:17;0.75;;;0.52;;
15528;SDS011;7866;52.280;9.500;2022-10-16T14:13:26;1.85;;;0.60;;
15528;SDS011;7866;52.280;9.500;2022-10-16T14:18:32;1.25;;;0.57;;
15528;SDS011;7866;52.280;9.500;2022-10-16T14:23:35;0.98;;;0.73;;
15528;SDS011;7866;52.280;9.500;2022-10-16T14:28:40;1.15;;;0.80;;
15528;SDS011;7866;52.280;9.500;2022-10-16T14:33:42;3.90;;;0.88;;
15528;SDS011;7866;52.280;9.500;2022-10-16T14:38:48;8.70;;;0.80;;
15528;SDS011;7866;52.280;9.500;2022-10-16T14:43:54;1.75;;;0.63;;
15528;SDS011;7866;52.280;9.500;2022-10-16T14:48:59;7.40;;;1.02;;
15528;SDS011;7866;52.280;9.500;2022-10-16T14:54:04;4.78;;;1.00;;
15528;SDS011;7866;52.280;9.500;2022-10-16T14:59:08;4.88;;;0.90;;
15528;SDS011;7866;52.280;9.500;2022-10-16T15:04:15;4.50;;;0.80;;
15528;SDS011;7866;52.280;9.500;2022-10-16T15:09:18;1.30;;;0.40;;
15528;SDS011;7866;52.280;9.500;2022-10-16T15:14:21;3.78;;;0.63;;
15528;SDS011;7866;52.280;9.500;2022-10-16T15:19:23;7.38;;;0.82;;
15528;SDS011;7866;52.280;9.500;2022-10-16T15:24:25;4.82;;;0.80;;
15528;SDS011;7866;52.280;9.500;2022-10-16T15:29:28;6.97;;;1.00;;
15528;SDS011;7866;52.280;9.500;2022-10-16T15:34:29;3.65;;;0.80;;
15528;SDS011;7866;52.280;9.500;2022-10-16T15:39:31;1.95;;;0.82;;
15528;SDS011;7866;52.280;9.500;2022-10-16T15:44:34;10.20;;;1.05;;
15528;SDS011;7866;52.280;9.500;2022-10-16T15:49:36;3.63;;;0.75;;
15528;SDS011;7866;52.280;9.500;2022-10-16T15:54:37;6.22;;;1.00;;
15528;SDS011;7866;52.280;9.500;2022-10-16T15:59:40;2.25;;;0.70;;
15528;SDS011;7866;52.280;9.500;2022-10-16T16:04:42;0.60;;;0.50;;
15528;SDS011;7866;52.280;9.500;2022-10-16T16:09:43;9.13;;;0.93;;
15528;SDS011;7866;52.280;9.500;2022-10-16T16:14:47;4.45;;;0.90;;
15528;SDS011;7866;52.280;9.500;2022-10-16T16:19:49;2.70;;;0.82;;
15528;SDS011;7866;52.280;9.500;2022-10-16T16:24:50;2.75;;;0.75;;
15528;SDS011;7866;52.280;9.500;2022-10-16T16:29:54;2.58;;;0.60;;
15528;SDS011;7866;52.280;9.500;2022-10-16T16:34:55;1.55;;;0.57;;
15528;SDS011;7866;52.280;9.500;2022-10-16T16:39:57;6.50;;;0.80;;
15528;SDS011;7866;52.280;9.500;2022-10-16T16:45:00;3.33;;;0.75;;
15528;SDS011;7866;52.280;9.500;2022-10-16T16:50:02;2.72;;;0.77;;
15528;SDS011;7866;52.280;9.500;2022-10-16T16:55:05;7.55;;;0.80;;
15528;SDS011;7866;52.280;9.500;2022-10-16T17:00:09;6.43;;;0.70;;
15528;SDS011;7866;52.280;9.500;2022-10-16T17:05:11;5.35;;;0.80;;
15528;SDS011;7866;52.280;9.500;2022-10-16T17:10:13;2.72;;;0.80;;
15528;SDS011;7866;52.280;9.500;2022-10-16T17:15:16;6.43;;;0.75;;
15528;SDS011;7866;52.280;9.500;2022-10-16T17:20:17;7.10;;;1.02;;
15528;SDS011;7866;52.280;9.500;2022-10-16T17:25:19;8.82;;;1.35;;
15528;SDS011;7866;52.280;9.500;2022-10-16T17:30:24;14.07;;;1.45;;
15528;SDS011;7866;52.280;9.500;2022-10-16T17:35:25;10.07;;;1.23;;
15528;SDS011;7866;52.280;9.500;2022-10-16T17:40:27;5.13;;;1.00;;
15528;SDS011;7866;52.280;9.500;2022-10-16T17:45:30;12.52;;;1.42;;
15528;SDS011;7866;52.280;9.500;2022-10-16T17:50:32;5.35;;;1.05;;
15528;SDS011;7866;52.280;9.500;2022-10-16T17:55:36;7.15;;;1.20;;
15528;SDS011;7866;52.280;9.500;2022-10-16T18:00:39;3.33;;;0.90;;
15528;SDS011;7866;52.280;9.500;2022-10-16T18:05:41;3.20;;;0.68;;
15528;SDS011;7866;52.280;9.500;2022-10-16T18:10:46;4.60;;;0.75;;
15528;SDS011;7866;52.280;9.500;2022-10-16T18:15:58;6.20;;;1.25;;
15528;SDS011;7866;52.280;9.500;2022-10-16T18:21:02;9.02;;;1.10;;
15528;SDS011;7866;52.280;9.500;2022-10-16T18:26:06;6.38;;;0.77;;
15528;SDS011;7866;52.280;9.500;2022-10-16T18:31:11;9.95;;;1.20;;
15528;SDS011;7866;52.280;9.500;2022-10-16T18:36:15;2.40;;;0.80;;
15528;SDS011;7866;52.280;9.500;2022-10-16T18:41:18;5.65;;;0.90;;
15528;SDS011;7866;52.280;9.500;2022-10-16T18:46:22;5.53;;;0.90;;
15528;SDS011;7866;52.280;9.500;2022-10-16T18:51:25;4.88;;;1.05;;
15528;SDS011;7866;52.280;9.500;2022-10-16T18:56:29;6.80;;;0.90;;
15528;SDS011;7866;52.280;9.500;2022-10-16T19:01:34;5.65;;;1.40;;
15528;SDS011;7866;52.280;9.500;2022-10-16T19:06:38;7.72;;;1.08;;
15528;SDS011;7866;52.280;9.500;2022-10-16T19:11:42;3.58;;;1.10;;
15528;SDS011;7866;52.280;9.500;2022-10-16T19:16:45;5.72;;;0.85;;
15528;SDS011;7866;52.280;9.500;2022-10-16T19:21:47;5.25;;;0.93;;
15528;SDS011;7866;52.280;9.500;2022-10-16T19:26:55;7.95;;;0.98;;
15528;SDS011;7866;52.280;9.500;2022-10-16T19:31:58;4.82;;;0.88;;
15528;SDS011;7866;52.280;9.500;2022-10-16T19:37:01;6.10;;;1.95;;
15528;SDS011;7866;52.280;9.500;2022-10-16T19:42:03;5.80;;;1.60;;
15528;SDS011;7866;52.280;9.500;2022-10-16T19:47:06;4.35;;;1.20;;
15528;SDS011;7866;52.280;9.500;2022-10-16T19:52:08;3.10;;;2.10;;
15528;SDS011;7866;52.280;9.500;2022-10-16T19:57:09;5.97;;;2.58;;
15528;SDS011;7866;52.280;9.500;2022-10-16T20:02:12;5.18;;;1.90;;
15528;SDS011;7866;52.280;9.500;2022-10-16T20:07:14;2.97;;;1.35;;
15528;SDS011;7866;52.280;9.500;2022-10-16T20:12:16;3.85;;;0.80;;
15528;SDS011;7866;52.280;9.500;2022-10-16T20:17:19;6.30;;;0.63;;
15528;SDS011;7866;52.280;9.500;2022-10-16T20:22:21;1.92;;;0.80;;
15528;SDS011;7866;52.280;9.500;2022-10-16T20:27:22;1.73;;;0.63;;
15528;SDS011;7866;52.280;9.500;2022-10-16T20:32:29;5.18;;;1.20;;
15528;SDS011;7866;52.280;9.500;2022-10-16T20:37:30;3.97;;;0.77;;
15528;SDS011;7866;52.280;9.500;2022-10-16T20:42:32;6.10;;;0.90;;
15528;SDS011;7866;52.280;9.500;2022-10-16T20:47:35;4.05;;;1.08;;
15528;SDS011;7866;52.280;9.500;2022-10-16T20:52:37;6.57;;;1.23;;
15528;SDS011;7866;52.280;9.500;2022-10-16T20:57:38;11.50;;;1.42;;
15528;SDS011;7866;52.280;9.500;2022-10-16T21:02:42;3.95;;;0.60;;
15528;SDS011;7866;52.280;9.500;2022-10-16T21:07:43;5.53;;;1.17;;
15528;SDS011;7866;52.280;9.500;2022-10-16T21:12:45;12.82;;;1.33;;
15528;SDS011;7866;52.280;9.500;2022-10-16T21:17:48;7.53;;;0.98;;
15528;SDS011;7866;52.280;9.500;2022-10-16T21:22:50;10.90;;;1.30;;
15528;SDS011;7866;52.280;9.500;2022-10-16T21:27:52;3.58;;;0.65;;
15528;SDS011;7866;52.280;9.500;2022-10-16T21:32:55;6.45;;;0.98;;
15528;SDS011;7866;52.280;9.500;2022-10-16T21:37:56;5.65;;;0.98;;
15528;SDS011;7866;52.280;9.500;2022-10-16T21:42:59;6.00;;;0.95;;
15528;SDS011;7866;52.280;9.500;2022-10-16T21:48:05;1.70;;;0.50;;
15528;SDS011;7866;52.280;9.500;2022-10-16T21:53:06;1.42;;;0.50;;
15528;SDS011;7866;52.280;9.500;2022-10-16T21:58:08;4.55;;;0.68;;
15528;SDS011;7866;52.280;9.500;2022-10-16T22:03:11;2.83;;;0.60;;
15528;SDS011;7866;52.280;9.500;2022-10-16T22:08:13;0.50;;;0.50;;
15528;SDS011;7866;52.280;9.500;2022-10-16T22:13:15;3.20;;;0.75;;
15528;SDS011;7866;52.280;9.500;2022-10-16T22:18:18;3.53;;;0.82;;
15528;SDS011;7866;52.280;9.500;2022-10-16T22:23:20;0.65;;;0.63;;
15528;SDS011;7866;52.280;9.500;2022-10-16T22:28:22;1.90;;;0.50;;
15528;SDS011;7866;52.280;9.500;2022-10-16T22:33:25;0.77;;;0.60;;
15528;SDS011;7866;52.280;9.500;2022-10-16T22:38:27;1.30;;;0.60;;
15528;SDS011;7866;52.280;9.500;2022-10-16T22:43:29;1.95;;;0.90;;
15528;SDS011;7866;52.280;9.500;2022-10-16T22:48:32;1.10;;;1.00;;
15528;SDS011;7866;52.280;9.500;2022-10-16T22:53:34;2.65;;;1.30;;
15528;SDS011;7866;52.280;9.500;2022-10-16T22:58:36;2.33;;;1.00;;
15528;SDS011;7866;52.280;9.500;2022-10-16T23:03:39;5.93;;;1.38;;
15528;SDS011;7866;52.280;9.500;2022-10-16T23:08:41;3.63;;;1.40;;
15528;SDS011;7866;52.280;9.500;2022-10-16T23:13:42;3.25;;;1.25;;
15528;SDS011;7866;52.280;9.500;2022-10-16T23:18:47;2.42;;;1.40;;
15528;SDS011;7866;52.280;9.500;2022-10-16T23:23:50;3.00;;;1.02;;
15528;SDS011;7866;52.280;9.500;2022-10-16T23:28:53;2.58;;;1.00;;
15528;SDS011;7866;52.280;9.500;2022-10-16T23:33:57;1.13;;;1.00;;
15528;SDS011;7866;52.280;9.500;2022-10-16T23:38:59;1.15;;;1.10;;
15528;SDS011;7866;52.280;9.500;2022-10-16T23:44:01;1.10;;;1.00;;
15528;SDS011;7866;52.280;9.500;2022-10-16T23:49:04;2.15;;;1.00;;
15528;SDS011;7866;52.280;9.500;2022-10-16T23:54:06;1.38;;;1.17;;
15528;SDS011;7866;52.280;9.500;2022-10-16T23:59:07;3.38;;;1.13;;
